createdAt,value
2023-03-02T00:01:41.099Z,19.00
2023-03-02T00:04:15.453Z,17.67
2023-03-02T00:06:43.552Z,18.60
2023-03-02T00:09:11.488Z,18.10
2023-03-02T00:11:39.656Z,17.93
2023-03-02T00:14:07.549Z,19.20
2023-03-02T00:16:35.529Z,19.33
2023-03-02T00:19:03.484Z,20.43
2023-03-02T00:21:32.833Z,17.37
2023-03-02T00:24:00.720Z,19.77
2023-03-02T00:26:28.571Z,20.07
2023-03-02T00:28:57.027Z,19.37
2023-03-02T00:31:24.956Z,18.43
2023-03-02T00:33:54.210Z,20.93
2023-03-02T00:36:24.302Z,18.60
2023-03-02T00:38:53.907Z,18.97
2023-03-02T00:41:22.467Z,17.53
2023-03-02T00:43:51.566Z,17.50
2023-03-02T00:46:22.255Z,19.80
2023-03-02T00:48:50.562Z,18.13
2023-03-02T00:51:18.965Z,17.93
2023-03-02T00:53:46.958Z,17.83
2023-03-02T00:56:16.227Z,18.97
2023-03-02T00:58:49.106Z,18.83
2023-03-02T01:01:18.671Z,18.90
2023-03-02T01:03:50.052Z,18.33
2023-03-02T01:06:20.628Z,17.93
2023-03-02T01:08:49.087Z,20.50
2023-03-02T01:11:21.031Z,20.57
2023-03-02T01:13:50.181Z,21.03
2023-03-02T01:16:18.264Z,19.70
2023-03-02T01:18:46.206Z,19.60
2023-03-02T01:21:16.575Z,19.17
2023-03-02T01:23:44.659Z,18.53
2023-03-02T01:26:12.764Z,18.90
2023-03-02T01:28:41.981Z,18.70
2023-03-02T01:31:09.930Z,19.67
2023-03-02T01:33:37.878Z,18.07
2023-03-02T01:36:06.451Z,18.07
2023-03-02T01:38:34.418Z,17.37
2023-03-02T01:41:02.260Z,18.70
2023-03-02T01:43:30.214Z,19.97
2023-03-02T01:46:04.110Z,19.70
2023-03-02T01:48:45.765Z,19.77
2023-03-02T01:51:17.451Z,18.63
2023-03-02T01:53:49.357Z,18.77
2023-03-02T01:56:21.493Z,19.17
2023-03-02T01:58:51.580Z,19.30
2023-03-02T02:01:21.148Z,20.60
2023-03-02T02:03:51.819Z,19.50
2023-03-02T02:06:25.002Z,19.57
2023-03-02T02:08:55.346Z,20.33
2023-03-02T02:11:23.250Z,19.53
2023-03-02T02:13:55.990Z,19.10
2023-03-02T02:16:26.256Z,19.07
2023-03-02T02:18:54.270Z,18.20
2023-03-02T02:21:23.185Z,19.00
2023-03-02T02:24:08.790Z,19.47
2023-03-02T02:26:43.570Z,20.10
2023-03-02T02:29:15.734Z,19.13
2023-03-02T02:31:47.937Z,19.57
2023-03-02T02:34:22.468Z,18.70
2023-03-02T02:36:56.325Z,19.50
2023-03-02T02:39:29.996Z,20.43
2023-03-02T02:42:03.038Z,18.97
2023-03-02T02:44:32.821Z,19.47
2023-03-02T02:47:01.349Z,18.00
2023-03-02T02:49:33.368Z,19.77
2023-03-02T02:52:01.304Z,18.87
2023-03-02T02:54:30.999Z,18.50
2023-03-02T02:57:02.503Z,17.00
2023-03-02T02:59:36.374Z,20.90
2023-03-02T03:02:04.532Z,20.13
2023-03-02T03:04:33.602Z,19.13
2023-03-02T03:07:04.221Z,18.93
2023-03-02T03:09:33.425Z,19.03
2023-03-02T03:12:08.147Z,19.20
2023-03-02T03:14:39.332Z,19.00
2023-03-02T03:17:12.164Z,19.90
2023-03-02T03:19:46.104Z,18.50
2023-03-02T03:22:15.388Z,18.33
2023-03-02T03:24:45.974Z,18.10
2023-03-02T03:27:17.706Z,16.60
2023-03-02T03:29:48.815Z,17.37
2023-03-02T03:32:19.259Z,17.77
2023-03-02T03:34:48.042Z,18.10
2023-03-02T03:37:32.338Z,17.37
2023-03-02T03:40:00.996Z,17.60
2023-03-02T03:42:32.279Z,16.60
2023-03-02T03:45:01.079Z,17.37
2023-03-02T03:47:29.164Z,16.97
2023-03-02T03:49:57.154Z,16.60
2023-03-02T03:52:30.716Z,17.40
2023-03-02T03:55:07.347Z,18.07
2023-03-02T03:57:37.300Z,19.00
2023-03-02T04:00:08.931Z,19.10
2023-03-02T04:02:42.660Z,16.73
2023-03-02T04:05:13.176Z,18.53
2023-03-02T04:07:41.882Z,18.53
2023-03-02T04:10:12.260Z,17.83
2023-03-02T04:12:43.430Z,17.67
2023-03-02T04:15:15.635Z,17.97
2023-03-02T04:17:45.881Z,20.00
2023-03-02T04:20:16.925Z,18.03
2023-03-02T04:22:50.482Z,16.97
2023-03-02T04:25:22.126Z,16.23
2023-03-02T04:27:54.790Z,17.77
2023-03-02T04:30:26.716Z,15.80
2023-03-02T04:32:57.444Z,16.30
2023-03-02T04:35:27.145Z,15.97
2023-03-02T04:37:55.087Z,16.87
2023-03-02T04:40:23.144Z,17.30
2023-03-02T04:42:51.010Z,17.77
2023-03-02T04:45:20.700Z,15.93
2023-03-02T04:47:48.538Z,17.57
2023-03-02T04:50:16.845Z,17.80
2023-03-02T04:52:44.689Z,16.40
2023-03-02T04:55:19.146Z,17.20
2023-03-02T04:57:47.034Z,16.90
2023-03-02T05:00:16.978Z,16.80
2023-03-02T05:02:46.811Z,15.53
2023-03-02T05:05:17.814Z,16.47
2023-03-02T05:07:45.844Z,16.43
2023-03-02T05:10:14.697Z,15.27
2023-03-02T05:12:57.992Z,14.97
2023-03-02T05:15:28.128Z,15.47
2023-03-02T05:17:58.101Z,15.33
2023-03-02T05:20:30.286Z,14.37
2023-03-02T05:23:01.426Z,16.00
2023-03-02T05:25:31.905Z,16.00
2023-03-02T05:28:00.012Z,16.10
2023-03-02T05:30:28.230Z,15.47
2023-03-02T05:32:57.563Z,16.30
2023-03-02T05:35:25.683Z,15.43
2023-03-02T05:37:53.674Z,17.07
2023-03-02T05:40:22.076Z,14.70
2023-03-02T05:42:50.694Z,15.57
2023-03-02T05:45:21.669Z,15.83
2023-03-02T05:47:49.645Z,15.70
2023-03-02T05:50:19.120Z,14.60
2023-03-02T05:52:47.040Z,16.47
2023-03-02T05:55:16.430Z,16.50
2023-03-02T05:57:44.923Z,15.17
2023-03-02T06:00:14.778Z,16.97
2023-03-02T06:02:42.757Z,15.73
2023-03-02T06:05:12.674Z,18.70
2023-03-02T06:07:42.070Z,16.40
2023-03-02T06:10:12.302Z,15.60
2023-03-02T06:12:40.712Z,17.10
2023-03-02T06:15:10.459Z,16.10
2023-03-02T06:17:38.345Z,17.97
2023-03-02T06:20:11.230Z,16.40
2023-03-02T06:22:41.175Z,17.60
2023-03-02T06:25:12.607Z,17.60
2023-03-02T06:27:41.239Z,17.87
2023-03-02T06:30:12.009Z,18.40
2023-03-02T06:32:40.039Z,17.73
2023-03-02T06:35:09.462Z,17.30
2023-03-02T06:37:37.716Z,19.33
2023-03-02T06:40:10.295Z,17.90
2023-03-02T06:42:40.326Z,19.10
2023-03-02T06:45:09.922Z,16.60
2023-03-02T06:47:37.909Z,15.90
2023-03-02T06:50:07.408Z,16.60
2023-03-02T06:52:36.027Z,15.83
2023-03-02T06:55:04.127Z,16.17
2023-03-02T06:57:34.201Z,16.07
2023-03-02T07:00:09.441Z,16.50
2023-03-02T07:02:37.478Z,15.80
2023-03-02T07:05:06.354Z,15.83
2023-03-02T07:07:34.309Z,17.10
2023-03-02T07:10:02.205Z,16.13
2023-03-02T07:12:30.044Z,15.80
2023-03-02T07:14:57.934Z,15.80
2023-03-02T07:17:27.242Z,16.97
2023-03-02T07:19:55.041Z,16.53
2023-03-02T07:22:23.315Z,18.13
2023-03-02T07:24:51.161Z,18.13
2023-03-02T07:27:19.061Z,16.93
2023-03-02T07:29:46.983Z,15.40
2023-03-02T07:32:14.983Z,17.03
2023-03-02T07:34:44.258Z,16.00
2023-03-02T07:37:12.172Z,18.00
2023-03-02T07:39:40.088Z,17.80
2023-03-02T07:42:09.058Z,17.77
2023-03-02T07:44:36.993Z,19.33
2023-03-02T07:47:05.193Z,16.93
2023-03-02T07:49:35.242Z,18.03
2023-03-02T07:52:04.971Z,17.63
2023-03-02T07:54:32.823Z,18.10
2023-03-02T07:57:01.015Z,16.40
2023-03-02T07:59:29.520Z,17.10
2023-03-02T08:01:58.424Z,16.93
2023-03-02T08:04:26.686Z,13.03
2023-03-02T08:06:54.569Z,15.10
2023-03-02T08:09:23.829Z,15.00
2023-03-02T08:11:51.694Z,16.07
2023-03-02T08:14:19.629Z,16.27
2023-03-02T08:16:47.791Z,15.60
2023-03-02T08:19:15.636Z,16.23
2023-03-02T08:21:43.530Z,16.07
2023-03-02T08:24:12.396Z,17.33
2023-03-02T08:26:41.582Z,17.67
2023-03-02T08:29:09.437Z,15.07
2023-03-02T08:31:37.414Z,16.13
2023-03-02T08:34:05.853Z,16.20
2023-03-02T08:36:34.048Z,16.03
2023-03-02T08:39:02.213Z,16.37
2023-03-02T08:41:30.685Z,17.17
2023-03-02T08:44:00.279Z,15.20
2023-03-02T08:46:28.406Z,16.27
2023-03-02T08:48:56.347Z,15.70
2023-03-02T08:51:26.483Z,16.40
2023-03-02T08:53:56.571Z,15.43
2023-03-02T08:56:26.374Z,15.20
2023-03-02T08:58:56.600Z,15.57
2023-03-02T09:01:28.670Z,14.67
2023-03-02T09:03:57.577Z,15.57
2023-03-02T09:06:25.568Z,17.60
2023-03-02T09:08:53.491Z,16.40
2023-03-02T09:11:21.351Z,16.10
2023-03-02T09:13:49.490Z,14.50
2023-03-02T09:16:20.545Z,15.70
2023-03-02T09:18:49.904Z,15.30
2023-03-02T09:21:17.859Z,14.90
2023-03-02T09:23:45.973Z,14.70
2023-03-02T09:26:13.943Z,14.37
2023-03-02T09:28:41.891Z,14.10
2023-03-02T09:31:10.079Z,14.50
2023-03-02T09:33:38.123Z,13.93
2023-03-02T09:36:13.432Z,13.50
2023-03-02T09:38:41.433Z,14.50
2023-03-02T09:41:35.747Z,12.10
2023-03-02T09:44:21.235Z,13.53
2023-03-02T09:46:52.637Z,12.70
2023-03-02T09:49:30.981Z,12.77
2023-03-02T09:52:12.321Z,13.47
2023-03-02T09:54:41.979Z,12.00
2023-03-02T09:57:22.294Z,11.73
2023-03-02T09:59:55.184Z,12.03
2023-03-02T10:02:28.265Z,11.87
2023-03-02T10:04:58.452Z,12.17
2023-03-02T10:07:30.209Z,12.87
2023-03-02T10:10:14.728Z,11.80
2023-03-02T10:12:52.796Z,13.63
2023-03-02T10:15:27.130Z,11.40
2023-03-02T10:18:02.009Z,13.87
2023-03-02T10:20:35.831Z,11.17
2023-03-02T10:23:17.500Z,10.50
2023-03-02T10:25:51.844Z,10.90
2023-03-02T10:28:22.105Z,9.47
2023-03-02T10:30:54.850Z,9.47
2023-03-02T10:33:23.250Z,9.90
2023-03-02T10:35:53.591Z,10.00
2023-03-02T10:38:24.717Z,9.07
2023-03-02T10:41:00.062Z,9.17
2023-03-02T10:43:32.781Z,8.40
2023-03-02T10:46:02.881Z,7.50
2023-03-02T10:48:30.995Z,7.53
2023-03-02T10:51:00.350Z,6.87
2023-03-02T10:53:30.003Z,9.20
2023-03-02T10:55:57.906Z,9.17
2023-03-02T10:58:30.308Z,8.40
2023-03-02T11:01:03.044Z,7.90
2023-03-02T11:03:32.164Z,8.87
2023-03-02T11:06:12.525Z,8.60
2023-03-02T11:08:41.798Z,8.30
2023-03-02T11:11:23.026Z,7.80
2023-03-02T11:13:51.083Z,8.17
2023-03-02T11:16:26.220Z,7.20
2023-03-02T11:18:58.530Z,8.37
2023-03-02T11:21:32.239Z,8.50
2023-03-02T11:24:10.783Z,8.57
2023-03-02T11:26:42.532Z,7.30
2023-03-02T11:29:22.826Z,8.93
2023-03-02T11:31:53.392Z,8.00
2023-03-02T11:34:29.057Z,8.00
2023-03-02T11:37:07.076Z,7.33
2023-03-02T11:39:56.061Z,7.40
2023-03-02T11:42:29.608Z,7.07
2023-03-02T11:44:58.126Z,7.50
2023-03-02T11:47:26.231Z,7.30
2023-03-02T11:49:57.028Z,7.60
2023-03-02T11:52:28.466Z,7.57
2023-03-02T11:55:04.204Z,7.03
2023-03-02T11:57:37.483Z,6.90
2023-03-02T12:00:16.498Z,6.67
2023-03-02T12:02:45.539Z,6.33
2023-03-02T12:05:25.761Z,6.13
2023-03-02T12:08:00.188Z,6.70
2023-03-02T12:10:35.679Z,6.77
2023-03-02T12:13:19.262Z,6.33
2023-03-02T12:15:48.408Z,5.83
2023-03-02T12:18:32.196Z,6.73
2023-03-02T12:21:02.186Z,6.97
2023-03-02T12:23:31.103Z,6.50
2023-03-02T12:26:07.566Z,5.90
2023-03-02T12:28:37.337Z,5.90
2023-03-02T12:31:09.566Z,6.40
2023-03-02T12:33:47.284Z,7.60
2023-03-02T12:36:19.440Z,8.23
2023-03-02T12:38:58.591Z,7.43
2023-03-02T12:41:40.121Z,6.00
2023-03-02T12:44:27.925Z,6.53
2023-03-02T12:46:56.889Z,6.90
2023-03-02T12:49:42.935Z,6.17
2023-03-02T12:52:24.140Z,6.70
2023-03-02T12:55:05.377Z,6.30
2023-03-02T12:57:37.847Z,6.80
2023-03-02T13:00:16.577Z,6.43
2023-03-02T13:02:48.304Z,18.20
2023-03-02T13:05:20.336Z,7.50
2023-03-02T13:07:56.555Z,7.47
2023-03-02T13:10:30.264Z,6.67
2023-03-02T13:13:00.447Z,6.93
2023-03-02T13:15:28.326Z,6.23
2023-03-02T13:17:58.568Z,7.67
2023-03-02T13:20:28.931Z,7.17
2023-03-02T13:22:57.136Z,7.40
2023-03-02T13:25:27.934Z,8.03
2023-03-02T13:27:57.274Z,8.57
2023-03-02T13:30:29.551Z,7.20
2023-03-02T13:33:03.134Z,7.67
2023-03-02T13:35:32.648Z,6.87
2023-03-02T13:38:04.520Z,7.57
2023-03-02T13:40:38.969Z,8.37
2023-03-02T13:43:24.667Z,7.80
2023-03-02T13:45:55.982Z,7.20
2023-03-02T13:48:24.823Z,7.30
2023-03-02T13:50:55.886Z,8.47
2023-03-02T13:53:24.378Z,8.53
2023-03-02T13:55:54.064Z,7.10
2023-03-02T13:58:23.846Z,8.37
2023-03-02T14:00:52.631Z,7.47
2023-03-02T14:03:26.286Z,8.10
2023-03-02T14:05:54.910Z,8.27
2023-03-02T14:08:23.374Z,7.50
2023-03-02T14:10:53.738Z,7.90
2023-03-02T14:13:25.002Z,7.83
2023-03-02T14:15:54.950Z,8.37
2023-03-02T14:18:32.087Z,7.97
2023-03-02T14:21:00.020Z,8.27
2023-03-02T14:23:29.124Z,5.80
2023-03-02T14:25:58.334Z,8.50
2023-03-02T14:28:31.179Z,7.07
2023-03-02T14:31:00.644Z,7.57
2023-03-02T14:33:30.125Z,7.43
2023-03-02T14:35:59.760Z,7.30
2023-03-02T14:38:28.783Z,7.20
2023-03-02T14:40:57.385Z,7.43
2023-03-02T14:43:25.553Z,6.73
2023-03-02T14:45:53.525Z,6.70
2023-03-02T14:48:21.568Z,6.90
2023-03-02T14:50:52.405Z,7.07
2023-03-02T14:53:24.053Z,7.37
2023-03-02T14:55:52.040Z,6.87
2023-03-02T14:58:21.578Z,6.73
2023-03-02T15:00:49.459Z,6.37
2023-03-02T15:03:22.603Z,7.10
2023-03-02T15:06:00.811Z,6.70
2023-03-02T15:08:29.828Z,6.40
2023-03-02T15:10:58.043Z,7.10
2023-03-02T15:13:25.991Z,8.47
2023-03-02T15:15:53.851Z,7.27
2023-03-02T15:18:21.755Z,6.77
2023-03-02T15:20:49.748Z,8.00
2023-03-02T15:23:19.078Z,7.00
2023-03-02T15:25:46.941Z,7.73
2023-03-02T15:28:14.886Z,6.47
2023-03-02T15:30:42.753Z,7.20
2023-03-02T15:33:10.733Z,6.90
2023-03-02T15:35:39.808Z,7.00
2023-03-02T15:38:07.854Z,7.00
2023-03-02T15:40:37.146Z,7.10
2023-03-02T15:43:05.022Z,7.03
2023-03-02T15:45:32.932Z,7.07
2023-03-02T15:48:00.793Z,7.70
2023-03-02T15:50:28.707Z,7.23
2023-03-02T15:52:57.484Z,7.60
2023-03-02T15:55:25.363Z,9.13
2023-03-02T15:57:57.949Z,7.53
2023-03-02T16:00:25.958Z,8.23
2023-03-02T16:02:53.901Z,8.10
2023-03-02T16:05:21.803Z,7.63
2023-03-02T16:07:49.652Z,7.30
2023-03-02T16:10:19.678Z,9.80
2023-03-02T16:12:47.609Z,10.70
2023-03-02T16:15:17.126Z,10.50
2023-03-02T16:17:45.446Z,9.40
2023-03-02T16:20:13.884Z,8.90
2023-03-02T16:22:41.745Z,9.20
2023-03-02T16:25:10.297Z,10.93
2023-03-02T16:27:38.319Z,10.80
2023-03-02T16:30:07.002Z,10.30
2023-03-02T16:32:36.194Z,12.37
2023-03-02T16:35:04.161Z,12.20
2023-03-02T16:37:32.118Z,11.87
2023-03-02T16:40:00.041Z,11.03
2023-03-02T16:42:30.321Z,10.70
2023-03-02T16:44:58.301Z,10.27
2023-03-02T16:47:26.358Z,11.97
2023-03-02T16:49:55.652Z,13.63
2023-03-02T16:52:23.867Z,12.87
2023-03-02T16:54:51.730Z,12.80
2023-03-02T16:57:19.679Z,14.53
2023-03-02T16:59:47.578Z,16.20
2023-03-02T17:02:16.556Z,16.47
2023-03-02T17:04:44.675Z,17.20
2023-03-02T17:07:14.012Z,15.97
2023-03-02T17:09:42.137Z,12.80
2023-03-02T17:12:10.041Z,11.73
2023-03-02T17:14:37.958Z,10.70
2023-03-02T17:17:05.915Z,40.30
2023-03-02T17:19:33.955Z,32.20
2023-03-02T17:22:02.692Z,16.27
2023-03-02T17:24:32.516Z,14.37
2023-03-02T17:27:00.398Z,13.87
2023-03-02T17:29:28.332Z,12.70
2023-03-02T17:31:56.564Z,12.23
2023-03-02T17:34:28.558Z,12.37
2023-03-02T17:36:56.536Z,12.40
2023-03-02T17:39:24.618Z,13.40
2023-03-02T17:41:53.990Z,63.37
2023-03-02T17:44:22.293Z,48.80
2023-03-02T17:46:50.205Z,28.83
2023-03-02T17:49:18.120Z,17.63
2023-03-02T17:51:46.121Z,14.17
2023-03-02T17:54:14.084Z,13.17
2023-03-02T17:56:42.327Z,12.73
2023-03-02T17:59:12.482Z,14.10
2023-03-02T18:01:40.699Z,12.23
2023-03-02T18:04:08.600Z,12.90
2023-03-02T18:06:36.854Z,13.33
2023-03-02T18:09:05.004Z,13.43
2023-03-02T18:11:33.431Z,11.33
2023-03-02T18:14:01.470Z,10.40
2023-03-02T18:16:30.911Z,14.37
2023-03-02T18:18:58.813Z,16.03
2023-03-02T18:21:27.007Z,18.07
2023-03-02T18:23:55.081Z,20.53
2023-03-02T18:26:22.953Z,19.77
2023-03-02T18:28:50.911Z,18.43
2023-03-02T18:31:20.657Z,19.33
2023-03-02T18:33:50.209Z,19.00
2023-03-02T18:36:18.497Z,34.20
2023-03-02T18:38:46.717Z,38.97
2023-03-02T18:41:15.258Z,19.70
2023-03-02T18:43:43.604Z,16.47
2023-03-02T18:46:19.976Z,17.77
2023-03-02T18:48:49.679Z,20.13
2023-03-02T18:51:19.430Z,20.30
2023-03-02T18:53:48.071Z,19.10
2023-03-02T18:56:16.310Z,20.10
2023-03-02T18:58:44.374Z,17.40
2023-03-02T19:01:12.778Z,18.90
2023-03-02T19:03:41.714Z,17.40
2023-03-02T19:06:10.062Z,18.13
2023-03-02T19:08:39.553Z,19.70
2023-03-02T19:11:07.858Z,18.47
2023-03-02T19:13:36.012Z,17.20
2023-03-02T19:16:04.674Z,16.77
2023-03-02T19:18:33.251Z,16.10
2023-03-02T19:21:01.319Z,17.43
2023-03-02T19:23:29.817Z,18.37
2023-03-02T19:25:59.109Z,17.63
2023-03-02T19:28:27.550Z,19.07
2023-03-02T19:30:55.538Z,16.03
2023-03-02T19:33:24.916Z,17.37
2023-03-02T19:35:53.046Z,17.23
2023-03-02T19:38:22.734Z,18.67
2023-03-02T19:40:51.185Z,20.00
2023-03-02T19:43:21.192Z,16.23
2023-03-02T19:45:49.152Z,18.20
2023-03-02T19:48:17.068Z,18.07
2023-03-02T19:50:45.468Z,16.07
2023-03-02T19:53:14.141Z,16.00
2023-03-02T19:55:42.780Z,15.67
2023-03-02T19:58:16.931Z,15.73
2023-03-02T20:00:47.243Z,15.37
2023-03-02T20:03:15.284Z,18.30
2023-03-02T20:05:43.297Z,16.43
2023-03-02T20:08:11.661Z,16.80
2023-03-02T20:10:42.541Z,16.70
2023-03-02T20:13:11.310Z,17.80
2023-03-02T20:15:41.441Z,18.73
2023-03-02T20:18:12.973Z,19.73
2023-03-02T20:20:41.196Z,22.17
2023-03-02T20:23:09.201Z,22.47
2023-03-02T20:25:37.482Z,21.20
2023-03-02T20:28:06.916Z,21.60
2023-03-02T20:30:40.722Z,20.77
2023-03-02T20:33:11.543Z,21.90
2023-03-02T20:35:42.522Z,21.03
2023-03-02T20:38:14.755Z,20.60
2023-03-02T20:40:43.213Z,20.73
2023-03-02T20:43:11.253Z,21.07
2023-03-02T20:45:39.876Z,22.13
2023-03-02T20:48:08.466Z,21.53
2023-03-02T20:50:39.344Z,22.70
2023-03-02T20:53:08.833Z,23.00
2023-03-02T20:55:36.910Z,22.23
2023-03-02T20:58:06.293Z,23.37
2023-03-02T21:00:35.800Z,23.13
2023-03-02T21:03:03.967Z,25.23
2023-03-02T21:05:35.019Z,25.47
2023-03-02T21:08:04.692Z,25.30
2023-03-02T21:10:36.352Z,27.23
2023-03-02T21:13:07.698Z,24.57
2023-03-02T21:15:36.262Z,25.70
2023-03-02T21:18:04.492Z,23.90
2023-03-02T21:20:36.720Z,24.10
2023-03-02T21:23:06.032Z,25.30
2023-03-02T21:25:34.467Z,26.37
2023-03-02T21:28:02.430Z,26.10
2023-03-02T21:30:36.079Z,27.50
2023-03-02T21:33:04.564Z,27.90
2023-03-02T21:35:32.833Z,26.43
2023-03-02T21:38:04.698Z,27.00
2023-03-02T21:40:36.093Z,26.70
2023-03-02T21:43:05.801Z,28.43
2023-03-02T21:45:34.420Z,27.60
2023-03-02T21:48:02.949Z,25.90
2023-03-02T21:50:33.081Z,26.63
2023-03-02T21:53:00.928Z,26.03
2023-03-02T21:55:29.349Z,25.60
2023-03-02T21:57:59.025Z,26.43
2023-03-02T22:00:30.787Z,26.10
2023-03-02T22:02:58.661Z,25.90
2023-03-02T22:05:27.170Z,25.80
2023-03-02T22:07:55.273Z,26.50
2023-03-02T22:10:27.797Z,27.17
2023-03-02T22:12:58.563Z,24.87
2023-03-02T22:15:28.071Z,26.47
2023-03-02T22:17:56.585Z,27.60
2023-03-02T22:20:24.705Z,26.20
2023-03-02T22:22:55.349Z,24.93
2023-03-02T22:25:23.363Z,25.13
2023-03-02T22:27:51.647Z,25.53
2023-03-02T22:30:23.336Z,24.73
2023-03-02T22:32:51.302Z,23.27
2023-03-02T22:35:23.327Z,22.73
2023-03-02T22:37:52.800Z,23.60
2023-03-02T22:40:30.256Z,21.50
2023-03-02T22:43:11.008Z,22.17
2023-03-02T22:45:41.132Z,37.93
2023-03-02T22:48:15.704Z,27.63
2023-03-02T22:50:44.934Z,22.13
2023-03-02T22:53:28.596Z,22.93
2023-03-02T22:55:59.134Z,23.10
2023-03-02T22:58:37.270Z,23.50
2023-03-02T23:01:20.936Z,23.03
2023-03-02T23:03:50.939Z,20.97
2023-03-02T23:06:28.026Z,22.63
2023-03-02T23:08:57.705Z,22.47
2023-03-02T23:11:26.419Z,22.33
2023-03-02T23:13:55.736Z,22.90
2023-03-02T23:16:27.802Z,24.20
2023-03-02T23:18:59.187Z,24.07
2023-03-02T23:21:29.213Z,23.03
2023-03-02T23:23:57.157Z,22.00
2023-03-02T23:26:25.030Z,24.67
2023-03-02T23:28:52.918Z,24.43
2023-03-02T23:31:21.157Z,25.30
2023-03-02T23:33:50.541Z,24.87
2023-03-02T23:36:21.081Z,25.43
2023-03-02T23:38:49.519Z,24.93
2023-03-02T23:41:18.347Z,25.40
2023-03-02T23:43:46.238Z,26.33
2023-03-02T23:46:14.575Z,24.30
2023-03-02T23:48:43.017Z,24.70
2023-03-02T23:51:12.268Z,24.43
2023-03-02T23:53:40.320Z,24.27
2023-03-02T23:56:08.463Z,25.40
2023-03-02T23:58:36.322Z,22.50
